This is the latest recevied weather packets stored in our database for station/object EB1DWF. If no packets are shown the sender has not sent any weather packets the latest 10 day(s).
| Time | Temp. | Humidity | Pressure | Rain* | Wind** | Luminosity | Snow |
|---|---|---|---|---|---|---|---|
| 1778182156 | 16.67° C | 56% | 1000.8 hPa | 0 mm | - | 3 W/m² | - |
| 1778181613 | 16.67° C | 53% | 1000.6 hPa | 0 mm | - | 3 W/m² | - |
| 1778180943 | 17.22° C | 50% | 1000.2 hPa | 0 mm | - | 3 W/m² | - |
| 1778180403 | 17.22° C | 50% | 1000 hPa | 0 mm | - | 4 W/m² | - |
| 1778180044 | 17.22° C | 49% | 1000 hPa | 0 mm | - | 4 W/m² | - |
| 1778179637 | 17.78° C | 50% | 999.9 hPa | 0 mm | - | 4 W/m² | - |
| 1778179094 | 17.78° C | 50% | 999.8 hPa | 0 mm | - | 12 W/m² | - |
| 1778178557 | 18.33° C | 49% | 999.5 hPa | 0 mm | - | 35 W/m² | - |
| 1778178014 | 19.44° C | 46% | 999.5 hPa | 0 mm | - | 77 W/m² | - |
| 1778177476 | 20° C | 42% | 999.2 hPa | 0 mm | - | 60 W/m² | - |
| 1778176804 | 23.33° C | 29% | 999.1 hPa | 0 mm | - | 255 W/m² | - |
| 1778176575 | 23.89° C | 28% | 999 hPa | 0 mm | - | 268 W/m² | - |
| 1778175903 | 25° C | 25% | 999 hPa | 0 mm | - | 295 W/m² | - |
| 1778175495 | 24.44° C | 26% | 998.8 hPa | 0 mm | - | 313 W/m² | - |
| 1778174823 | 24.44° C | 32% | 998.7 hPa | 0 mm | - | 391 W/m² | - |
| 1778174283 | 23.89° C | 33% | 998.6 hPa | 0 mm | - | 406 W/m² | - |
| 1778173743 | 23.33° C | 33% | 998.8 hPa | 0 mm | - | 465 W/m² | - |
| 1778173204 | 23.33° C | 34% | 998.6 hPa | 0 mm | - | 477 W/m² | - |
| 1778172843 | 22.78° C | 34% | 998.6 hPa | 0 mm | - | 490 W/m² | - |
| 1778172304 | 22.22° C | 34% | 998.6 hPa | 0 mm | - | 456 W/m² | - |
| 1778171896 | 21.67° C | 39% | 998.7 hPa | 0 mm | - | 472 W/m² | - |
| 1778171223 | 20° C | 45% | 998.9 hPa | 0 mm | - | 482 W/m² | - |
| 1778170815 | 20° C | 45% | 998.8 hPa | 0 mm | - | 503 W/m² | - |
| 1778170143 | 20.56° C | 45% | 998.9 hPa | 0 mm | - | 517 W/m² | - |
| 1778169735 | 20.56° C | 49% | 998.8 hPa | 0 mm | - | 88 W/m² | - |
* Rain latest hour (hover to see other rain measurements)
** Current wind speed in m/s (hover to see current wind gust speed)